createdAt,value
2022-10-22T04:15:15.878Z,10.35
2022-10-22T04:17:42.692Z,10.15
2022-10-22T04:20:11.120Z,10.15
2022-10-22T04:22:37.679Z,10.05
2022-10-22T04:25:04.853Z,10.02
2022-10-22T04:27:34.514Z,10.10
2022-10-22T04:30:01.059Z,10.11
2022-10-22T04:32:28.499Z,10.12
2022-10-22T04:34:54.972Z,10.17
2022-10-22T04:37:21.571Z,10.23
2022-10-22T04:39:47.972Z,10.17
2022-10-22T04:42:14.444Z,10.13
2022-10-22T04:44:41.102Z,10.21
2022-10-22T04:47:07.655Z,10.16
2022-10-22T04:49:34.230Z,10.37
2022-10-22T04:52:00.813Z,10.38
2022-10-22T04:54:30.499Z,10.41
2022-10-22T04:56:59.590Z,10.33
2022-10-22T04:59:26.341Z,10.33
2022-10-22T05:01:53.015Z,10.28
2022-10-22T05:04:19.793Z,10.40
2022-10-22T05:06:47.072Z,10.28
2022-10-22T05:09:17.053Z,10.37
2022-10-22T05:11:48.209Z,10.34
2022-10-22T05:14:17.235Z,10.37
2022-10-22T05:19:17.945Z,10.22
2022-10-22T05:21:44.923Z,10.18
2022-10-22T05:24:11.802Z,10.33
2022-10-22T05:26:38.293Z,10.35
2022-10-22T05:29:04.767Z,10.34
2022-10-22T05:31:31.203Z,10.34
2022-10-22T05:33:57.709Z,10.24
2022-10-22T05:36:24.274Z,10.23
2022-10-22T05:38:51.276Z,10.14
2022-10-22T05:41:23.224Z,10.07
2022-10-22T05:43:50.648Z,10.14
2022-10-22T05:46:22.716Z,10.15
2022-10-22T05:48:53.754Z,10.29
2022-10-22T05:51:21.433Z,10.04
2022-10-22T05:53:52.544Z,10.35
2022-10-22T05:56:19.167Z,10.12
2022-10-22T05:58:46.199Z,10.25
2022-10-22T06:01:18.705Z,10.19
2022-10-22T06:03:47.232Z,10.10
2022-10-22T06:06:22.633Z,10.13
2022-10-22T06:08:51.652Z,10.03
2022-10-22T06:11:20.065Z,10.03
2022-10-22T06:13:47.774Z,9.93
2022-10-22T06:16:15.008Z,9.78
2022-10-22T06:18:41.689Z,9.80
2022-10-22T06:21:13.578Z,9.62
2022-10-22T06:23:41.183Z,9.63
2022-10-22T06:26:08.079Z,9.52
2022-10-22T06:28:35.113Z,9.45
2022-10-22T06:31:02.695Z,9.42
2022-10-22T06:33:31.239Z,9.22
2022-10-22T06:36:07.634Z,9.25
2022-10-22T06:38:34.557Z,9.26
2022-10-22T06:41:09.441Z,9.43
2022-10-22T06:43:36.205Z,9.46
2022-10-22T06:46:05.145Z,9.40
2022-10-22T06:48:31.658Z,9.30
2022-10-22T06:51:02.652Z,9.39
2022-10-22T06:53:29.929Z,9.36
2022-10-22T06:55:56.466Z,9.40
2022-10-22T06:58:23.092Z,9.58
2022-10-22T07:00:49.703Z,9.57
2022-10-22T07:03:16.217Z,9.52
2022-10-22T07:05:42.751Z,9.55
2022-10-22T07:08:09.348Z,9.70
2022-10-22T07:10:35.854Z,9.62
2022-10-22T07:13:02.344Z,9.60
2022-10-22T07:15:28.837Z,9.60
2022-10-22T07:17:55.400Z,9.47
2022-10-22T07:20:21.956Z,9.54
2022-10-22T07:22:48.474Z,9.84
2022-10-22T07:25:15.144Z,9.82
2022-10-22T07:27:41.937Z,9.71
2022-10-22T07:30:09.076Z,9.70
2022-10-22T07:32:35.570Z,9.90
2022-10-22T07:35:02.214Z,9.87
2022-10-22T07:37:28.778Z,9.86
2022-10-22T07:39:55.348Z,9.85
2022-10-22T07:42:21.958Z,9.90
2022-10-22T07:44:48.439Z,9.97
2022-10-22T07:47:14.941Z,9.95
2022-10-22T07:49:41.397Z,9.89
2022-10-22T07:52:08.121Z,10.04
2022-10-22T07:54:34.648Z,10.27
2022-10-22T07:57:01.157Z,10.15
2022-10-22T07:59:27.692Z,10.26
2022-10-22T08:01:54.143Z,10.10
2022-10-22T08:04:20.674Z,10.30
2022-10-22T08:06:47.355Z,10.31
2022-10-22T08:09:14.641Z,10.33
2022-10-22T08:11:41.111Z,10.28
2022-10-22T08:14:07.706Z,10.31
2022-10-22T08:16:34.253Z,10.26
2022-10-22T08:19:00.786Z,10.44
2022-10-22T08:21:27.237Z,10.44
2022-10-22T08:23:54.006Z,10.54
2022-10-22T08:26:20.562Z,10.51
2022-10-22T08:28:47.143Z,10.80
2022-10-22T08:31:13.750Z,10.88
2022-10-22T08:33:40.916Z,10.79
2022-10-22T08:36:08.234Z,10.86
2022-10-22T08:38:35.293Z,11.06
2022-10-22T08:41:12.168Z,11.10
2022-10-22T08:43:48.119Z,11.21
2022-10-22T08:46:52.593Z,11.41
2022-10-22T08:49:24.661Z,11.67
2022-10-22T08:51:51.304Z,11.69
2022-10-22T08:54:43.430Z,12.04
2022-10-22T08:57:16.025Z,11.89
2022-10-22T09:00:06.593Z,12.00
2022-10-22T09:02:39.681Z,11.59
2022-10-22T09:05:21.266Z,11.42
2022-10-22T09:07:50.201Z,11.40
2022-10-22T09:10:20.013Z,11.64
2022-10-22T09:12:48.389Z,11.58
2022-10-22T09:15:17.679Z,11.50
2022-10-22T09:17:58.490Z,11.92
2022-10-22T09:20:42.320Z,12.03
2022-10-22T09:23:17.711Z,12.26
2022-10-22T09:25:45.243Z,12.26
2022-10-22T09:28:11.725Z,12.41
2022-10-22T09:30:39.927Z,12.39
2022-10-22T09:33:06.361Z,12.38
2022-10-22T09:35:49.094Z,12.12
2022-10-22T09:38:18.905Z,12.50
2022-10-22T09:40:54.487Z,12.29
2022-10-22T09:43:21.356Z,12.44
2022-10-22T09:45:55.013Z,12.06
2022-10-22T09:48:26.510Z,12.24
2022-10-22T09:51:13.070Z,12.60
2022-10-22T09:53:43.729Z,12.64
2022-10-22T09:56:21.732Z,12.70
2022-10-22T09:58:51.156Z,12.73
2022-10-22T10:01:38.578Z,12.72
2022-10-22T10:04:10.013Z,12.79
2022-10-22T10:06:41.665Z,13.05
2022-10-22T10:09:19.758Z,13.09
2022-10-22T10:11:58.037Z,13.34
2022-10-22T10:14:37.372Z,13.21
2022-10-22T10:17:32.105Z,13.12
2022-10-22T10:20:24.053Z,13.71
2022-10-22T10:23:32.162Z,13.37
2022-10-22T10:26:08.083Z,13.87
2022-10-22T10:29:04.262Z,14.33
2022-10-22T10:32:02.780Z,14.54
2022-10-22T10:35:06.304Z,14.74
2022-10-22T10:37:51.488Z,14.26
2022-10-22T10:40:17.943Z,13.97
2022-10-22T10:43:00.035Z,13.92
2022-10-22T10:45:50.363Z,13.91
2022-10-22T10:48:52.563Z,14.30
2022-10-22T10:51:24.947Z,14.59
2022-10-22T10:54:03.882Z,14.56
2022-10-22T10:56:44.631Z,13.92
2022-10-22T10:59:17.549Z,13.72
2022-10-22T11:02:18.162Z,14.31
2022-10-22T11:05:22.071Z,14.86
2022-10-22T11:07:56.035Z,15.26
2022-10-22T11:10:31.555Z,15.24
2022-10-22T11:13:05.575Z,15.32
2022-10-22T11:15:39.279Z,15.74
2022-10-22T11:18:20.629Z,15.27
2022-10-22T11:20:52.959Z,14.76
2022-10-22T11:23:35.027Z,14.33
2022-10-22T11:26:04.153Z,14.55
2022-10-22T11:28:53.196Z,14.58
2022-10-22T11:31:25.402Z,14.06
2022-10-22T11:34:04.746Z,14.55
2022-10-22T11:36:37.905Z,14.67
2022-10-22T11:39:05.183Z,14.49
2022-10-22T11:41:33.571Z,14.49
2022-10-22T11:44:22.260Z,14.84
2022-10-22T11:46:58.398Z,14.62
2022-10-22T11:49:28.702Z,15.21
2022-10-22T11:52:22.791Z,15.45
2022-10-22T11:54:49.545Z,15.56
2022-10-22T11:57:19.069Z,15.18
2022-10-22T11:59:56.213Z,14.57
2022-10-22T12:02:28.616Z,14.45
2022-10-22T12:05:16.523Z,14.44
2022-10-22T12:07:57.487Z,14.05
2022-10-22T12:10:34.328Z,14.24
2022-10-22T12:13:21.226Z,14.39
2022-10-22T12:15:54.261Z,14.49
2022-10-22T12:18:24.522Z,14.70
2022-10-22T12:20:53.587Z,14.46
2022-10-22T12:23:31.498Z,14.66
2022-10-22T12:25:58.493Z,14.91
2022-10-22T12:28:25.165Z,14.74
2022-10-22T12:30:51.822Z,15.16
2022-10-22T12:33:21.682Z,16.91
2022-10-22T12:35:56.194Z,17.86
2022-10-22T12:38:25.547Z,19.77
2022-10-22T12:40:55.618Z,20.08
2022-10-22T12:43:28.285Z,17.80
2022-10-22T12:45:59.677Z,18.15
2022-10-22T12:48:34.428Z,18.10
2022-10-22T12:51:04.094Z,19.45
2022-10-22T12:53:38.012Z,20.07
2022-10-22T12:56:12.881Z,18.52
2022-10-22T12:58:49.357Z,17.43
2022-10-22T13:01:17.721Z,17.34
2022-10-22T13:03:50.591Z,16.42
2022-10-22T13:06:20.103Z,16.00
2022-10-22T13:09:12.260Z,16.06
2022-10-22T13:11:41.797Z,16.53
2022-10-22T13:14:38.709Z,18.56
2022-10-22T13:17:18.403Z,20.88
2022-10-22T13:19:51.600Z,18.98
2022-10-22T13:22:37.058Z,17.24
2022-10-22T13:25:20.390Z,16.25
2022-10-22T13:27:52.859Z,16.20
2022-10-22T13:30:19.481Z,16.46
2022-10-22T13:32:51.305Z,16.95
2022-10-22T13:35:24.947Z,17.23
2022-10-22T13:37:52.018Z,16.94
2022-10-22T13:40:19.279Z,16.97
2022-10-22T13:42:46.311Z,16.29
2022-10-22T13:45:14.560Z,15.96
2022-10-22T13:47:44.928Z,16.12
2022-10-22T13:50:15.738Z,17.97
2022-10-22T13:52:49.627Z,17.79
2022-10-22T13:55:25.716Z,16.97
2022-10-22T13:57:57.406Z,16.79
2022-10-22T14:00:24.367Z,16.63
2022-10-22T14:02:55.577Z,16.40
2022-10-22T14:05:22.185Z,16.47
2022-10-22T14:07:49.131Z,16.13
2022-10-22T14:10:22.516Z,17.00
2022-10-22T14:12:52.570Z,17.87
2022-10-22T14:15:27.591Z,19.12
2022-10-22T14:17:56.910Z,18.24
2022-10-22T14:20:30.561Z,17.34
2022-10-22T14:23:05.602Z,17.07
2022-10-22T14:25:32.172Z,16.76
2022-10-22T14:27:58.596Z,16.03
2022-10-22T14:30:26.379Z,15.98
2022-10-22T14:32:53.151Z,16.07
2022-10-22T14:35:24.452Z,16.10
2022-10-22T14:37:51.788Z,15.70
2022-10-22T14:40:20.516Z,15.83
2022-10-22T14:42:48.713Z,15.84
2022-10-22T14:45:22.459Z,15.85
2022-10-22T14:47:50.588Z,15.85
2022-10-22T14:50:18.909Z,16.15
2022-10-22T14:52:45.483Z,15.97
2022-10-22T14:55:14.685Z,15.49
2022-10-22T14:57:41.861Z,15.28
2022-10-22T15:00:12.649Z,15.54
2022-10-22T15:02:39.404Z,15.72
2022-10-22T15:05:07.210Z,15.53
2022-10-22T15:07:34.074Z,15.45
2022-10-22T15:10:00.599Z,15.56
2022-10-22T15:12:29.721Z,15.34
2022-10-22T15:14:57.387Z,15.26
2022-10-22T15:17:24.030Z,15.14
2022-10-22T15:19:50.620Z,14.84
2022-10-22T15:22:19.136Z,14.72
2022-10-22T15:24:46.014Z,14.59
2022-10-22T15:27:15.542Z,14.67
2022-10-22T15:29:42.640Z,14.55
2022-10-22T15:32:12.704Z,14.74
2022-10-22T15:34:40.060Z,14.39
2022-10-22T15:37:10.237Z,14.46
2022-10-22T15:39:40.886Z,14.40
2022-10-22T15:42:08.435Z,14.48
2022-10-22T15:44:35.496Z,14.37
2022-10-22T15:47:07.157Z,14.35
2022-10-22T15:49:35.706Z,14.25
2022-10-22T15:52:02.324Z,14.37
2022-10-22T15:54:30.154Z,14.38
2022-10-22T15:56:58.018Z,14.38
2022-10-22T15:59:24.957Z,14.14
2022-10-22T16:01:51.999Z,14.16
2022-10-22T16:04:19.136Z,13.90
2022-10-22T16:06:48.609Z,13.94
2022-10-22T16:09:21.739Z,13.94
2022-10-22T16:11:48.852Z,13.78
2022-10-22T16:14:17.763Z,13.62
2022-10-22T16:16:48.520Z,13.70
2022-10-22T16:19:19.132Z,13.77
2022-10-22T16:21:46.110Z,13.78
2022-10-22T16:24:12.964Z,13.74
2022-10-22T16:26:39.422Z,13.70
2022-10-22T16:29:11.461Z,13.61
2022-10-22T16:31:40.090Z,13.49
2022-10-22T16:34:07.379Z,13.54
2022-10-22T16:36:36.135Z,13.62
2022-10-22T16:39:03.578Z,13.52
2022-10-22T16:41:35.075Z,13.51
2022-10-22T16:44:04.483Z,13.49
2022-10-22T16:46:31.586Z,13.32
2022-10-22T16:48:58.178Z,13.32
2022-10-22T16:51:27.137Z,13.29
2022-10-22T16:53:56.130Z,13.17
2022-10-22T16:56:23.787Z,13.12
2022-10-22T16:59:03.719Z,12.92
2022-10-22T17:01:30.278Z,12.90
2022-10-22T17:07:30.198Z,12.59
2022-10-22T17:09:56.692Z,12.51
2022-10-22T17:12:23.227Z,12.60
2022-10-22T17:14:51.107Z,12.54
2022-10-22T17:17:17.932Z,12.45
2022-10-22T17:19:44.412Z,12.44
2022-10-22T17:22:14.778Z,12.44
2022-10-22T17:24:43.870Z,12.35
2022-10-22T17:27:10.702Z,12.28
2022-10-22T17:29:37.362Z,12.29
2022-10-22T17:32:03.911Z,12.23
2022-10-22T17:34:33.090Z,12.17
2022-10-22T17:37:00.228Z,12.06
2022-10-22T17:39:26.949Z,12.02
2022-10-22T17:41:53.433Z,11.93
2022-10-22T17:44:19.945Z,11.93
2022-10-22T17:46:47.244Z,11.85
2022-10-22T17:49:20.176Z,11.81
2022-10-22T17:51:47.274Z,11.81
2022-10-22T17:54:14.309Z,11.78
2022-10-22T17:56:40.996Z,11.67
2022-10-22T17:59:09.644Z,11.55
2022-10-22T18:01:40.242Z,11.41
2022-10-22T18:04:08.572Z,11.32
2022-10-22T18:06:35.499Z,11.13
2022-10-22T18:09:06.715Z,11.23
2022-10-22T18:11:34.422Z,11.19
2022-10-22T18:14:01.146Z,11.04
2022-10-22T18:16:27.764Z,11.09
2022-10-22T18:18:55.894Z,11.08
2022-10-22T18:21:24.406Z,11.09
2022-10-22T18:23:51.395Z,10.99
2022-10-22T18:26:21.366Z,10.95
2022-10-22T18:28:51.115Z,10.96
2022-10-22T18:31:20.647Z,10.87
2022-10-22T18:33:48.168Z,10.84
2022-10-22T18:36:20.577Z,10.78
2022-10-22T18:38:58.586Z,10.76
2022-10-22T18:41:26.461Z,10.75
2022-10-22T18:43:58.915Z,10.71
2022-10-22T18:46:26.157Z,10.57
2022-10-22T18:48:53.807Z,10.64
2022-10-22T18:51:20.791Z,10.63
2022-10-22T18:53:59.223Z,10.57
2022-10-22T18:56:39.543Z,10.49
2022-10-22T18:59:06.051Z,10.52
2022-10-22T19:01:35.414Z,10.47
2022-10-22T19:04:02.093Z,10.37
2022-10-22T19:06:34.435Z,10.36
2022-10-22T19:09:04.712Z,10.39
2022-10-22T19:11:32.263Z,10.31
2022-10-22T19:13:58.730Z,10.26
2022-10-22T19:16:26.787Z,10.22
2022-10-22T19:18:59.678Z,10.17
2022-10-22T19:21:26.384Z,10.14
2022-10-22T19:23:55.866Z,10.18
2022-10-22T19:26:24.113Z,10.06
2022-10-22T19:28:50.614Z,10.09
2022-10-22T19:31:19.664Z,10.03
2022-10-22T19:33:47.809Z,9.98
2022-10-22T19:36:17.124Z,10.02
2022-10-22T19:38:46.448Z,9.95
2022-10-22T19:41:15.340Z,9.95
2022-10-22T19:43:42.910Z,9.94
2022-10-22T19:46:09.733Z,9.80
2022-10-22T19:48:36.952Z,9.84
2022-10-22T19:51:14.732Z,9.86
2022-10-22T19:53:41.288Z,9.82
2022-10-22T19:56:10.576Z,9.81
2022-10-22T19:58:38.245Z,9.84
2022-10-22T20:01:06.751Z,9.80
2022-10-22T20:03:34.499Z,9.82
2022-10-22T20:06:01.068Z,9.77
2022-10-22T20:08:27.581Z,9.76
2022-10-22T20:10:54.450Z,9.74
2022-10-22T20:13:21.092Z,9.62
2022-10-22T20:15:48.828Z,9.59
2022-10-22T20:18:16.057Z,9.54
2022-10-22T20:20:42.672Z,9.51
2022-10-22T20:23:09.319Z,9.49
2022-10-22T20:25:40.377Z,9.46
2022-10-22T20:28:06.923Z,9.47
2022-10-22T20:30:33.435Z,9.47
2022-10-22T20:33:00.123Z,9.44
2022-10-22T20:35:26.681Z,9.55
2022-10-22T20:37:53.174Z,9.58
2022-10-22T20:40:20.181Z,9.59
2022-10-22T20:42:47.415Z,9.64
2022-10-22T20:45:13.926Z,9.55
2022-10-22T20:47:51.187Z,9.54
2022-10-22T20:50:21.191Z,9.50
2022-10-22T20:52:48.815Z,9.50
2022-10-22T20:57:43.323Z,9.46
2022-10-22T21:00:10.919Z,9.39
2022-10-22T21:02:37.391Z,9.38
2022-10-22T21:05:04.080Z,9.36
2022-10-22T21:07:30.702Z,9.32
2022-10-22T21:09:57.159Z,9.37
2022-10-22T21:12:23.649Z,9.37
2022-10-22T21:14:50.354Z,9.36
2022-10-22T21:17:16.985Z,9.23
2022-10-22T21:19:43.603Z,9.28
2022-10-22T21:22:10.322Z,9.26
2022-10-22T21:24:36.901Z,9.29
2022-10-22T21:27:04.217Z,9.28
2022-10-22T21:29:30.943Z,9.26
2022-10-22T21:31:57.600Z,9.26
2022-10-22T21:34:24.140Z,9.29
2022-10-22T21:36:50.727Z,9.28
2022-10-22T21:39:17.246Z,9.29
2022-10-22T21:41:43.736Z,9.29
2022-10-22T21:44:10.379Z,9.34
2022-10-22T21:46:37.485Z,9.18
2022-10-22T21:49:04.333Z,9.19
2022-10-22T21:51:33.575Z,9.18
2022-10-22T21:54:00.452Z,9.10
2022-10-22T21:56:30.151Z,9.14
2022-10-22T21:58:56.659Z,9.07
